sensor_id;sensor_type;location;lat;lon;timestamp;P1;durP1;ratioP1;P2;durP2;ratioP2
11427;SDS011;5770;44.504;11.346;2023-03-05T00:01:24;14.57;;;9.57;;
11427;SDS011;5770;44.504;11.346;2023-03-05T00:03:54;14.80;;;8.52;;
11427;SDS011;5770;44.504;11.346;2023-03-05T00:06:25;13.60;;;8.52;;
11427;SDS011;5770;44.504;11.346;2023-03-05T00:08:54;17.00;;;8.27;;
11427;SDS011;5770;44.504;11.346;2023-03-05T00:11:22;12.48;;;9.02;;
11427;SDS011;5770;44.504;11.346;2023-03-05T00:13:53;10.30;;;8.18;;
11427;SDS011;5770;44.504;11.346;2023-03-05T00:16:23;11.73;;;7.90;;
11427;SDS011;5770;44.504;11.346;2023-03-05T00:18:51;12.23;;;8.98;;
11427;SDS011;5770;44.504;11.346;2023-03-05T00:21:21;13.38;;;7.70;;
11427;SDS011;5770;44.504;11.346;2023-03-05T00:23:49;11.07;;;8.05;;
11427;SDS011;5770;44.504;11.346;2023-03-05T00:26:18;12.00;;;8.43;;
11427;SDS011;5770;44.504;11.346;2023-03-05T00:28:46;11.02;;;7.80;;
11427;SDS011;5770;44.504;11.346;2023-03-05T00:31:14;11.48;;;7.72;;
11427;SDS011;5770;44.504;11.346;2023-03-05T00:33:42;10.60;;;7.80;;
11427;SDS011;5770;44.504;11.346;2023-03-05T00:36:09;12.68;;;8.07;;
11427;SDS011;5770;44.504;11.346;2023-03-05T00:38:37;9.98;;;7.82;;
11427;SDS011;5770;44.504;11.346;2023-03-05T00:41:05;16.15;;;7.88;;
11427;SDS011;5770;44.504;11.346;2023-03-05T00:43:31;14.23;;;7.68;;
11427;SDS011;5770;44.504;11.346;2023-03-05T00:45:59;9.13;;;7.63;;
11427;SDS011;5770;44.504;11.346;2023-03-05T00:48:26;12.45;;;7.57;;
11427;SDS011;5770;44.504;11.346;2023-03-05T00:50:53;13.10;;;7.35;;
11427;SDS011;5770;44.504;11.346;2023-03-05T00:53:20;10.35;;;7.25;;
11427;SDS011;5770;44.504;11.346;2023-03-05T00:55:49;12.63;;;8.15;;
11427;SDS011;5770;44.504;11.346;2023-03-05T00:58:16;11.25;;;7.57;;
11427;SDS011;5770;44.504;11.346;2023-03-05T01:00:43;13.40;;;7.82;;
11427;SDS011;5770;44.504;11.346;2023-03-05T01:03:10;14.00;;;7.45;;
11427;SDS011;5770;44.504;11.346;2023-03-05T01:05:37;13.82;;;7.95;;
11427;SDS011;5770;44.504;11.346;2023-03-05T01:08:04;11.85;;;8.07;;
11427;SDS011;5770;44.504;11.346;2023-03-05T01:10:32;10.65;;;7.82;;
11427;SDS011;5770;44.504;11.346;2023-03-05T01:13:00;9.43;;;6.97;;
11427;SDS011;5770;44.504;11.346;2023-03-05T01:15:27;10.27;;;6.85;;
11427;SDS011;5770;44.504;11.346;2023-03-05T01:17:54;10.73;;;7.25;;
11427;SDS011;5770;44.504;11.346;2023-03-05T01:20:22;12.20;;;7.50;;
11427;SDS011;5770;44.504;11.346;2023-03-05T01:22:49;10.88;;;7.47;;
11427;SDS011;5770;44.504;11.346;2023-03-05T01:25:16;10.10;;;7.80;;
11427;SDS011;5770;44.504;11.346;2023-03-05T01:27:44;11.18;;;7.40;;
11427;SDS011;5770;44.504;11.346;2023-03-05T01:30:13;11.50;;;7.43;;
11427;SDS011;5770;44.504;11.346;2023-03-05T01:32:40;9.25;;;7.60;;
11427;SDS011;5770;44.504;11.346;2023-03-05T01:35:09;10.88;;;6.95;;
11427;SDS011;5770;44.504;11.346;2023-03-05T01:37:36;11.35;;;6.82;;
11427;SDS011;5770;44.504;11.346;2023-03-05T01:40:04;8.43;;;6.65;;
11427;SDS011;5770;44.504;11.346;2023-03-05T01:42:32;14.93;;;7.88;;
11427;SDS011;5770;44.504;11.346;2023-03-05T01:45:00;8.00;;;6.88;;
11427;SDS011;5770;44.504;11.346;2023-03-05T01:47:29;15.75;;;7.65;;
11427;SDS011;5770;44.504;11.346;2023-03-05T01:49:57;10.43;;;7.13;;
11427;SDS011;5770;44.504;11.346;2023-03-05T01:52:24;13.82;;;7.63;;
11427;SDS011;5770;44.504;11.346;2023-03-05T01:54:53;11.60;;;7.78;;
11427;SDS011;5770;44.504;11.346;2023-03-05T01:57:25;11.30;;;7.68;;
11427;SDS011;5770;44.504;11.346;2023-03-05T01:59:54;11.68;;;7.82;;
11427;SDS011;5770;44.504;11.346;2023-03-05T02:02:22;10.45;;;7.30;;
11427;SDS011;5770;44.504;11.346;2023-03-05T02:04:53;13.35;;;8.43;;
11427;SDS011;5770;44.504;11.346;2023-03-05T02:07:23;11.77;;;7.78;;
11427;SDS011;5770;44.504;11.346;2023-03-05T02:09:50;10.25;;;7.70;;
11427;SDS011;5770;44.504;11.346;2023-03-05T02:12:17;11.95;;;8.27;;
11427;SDS011;5770;44.504;11.346;2023-03-05T02:14:44;12.45;;;7.85;;
11427;SDS011;5770;44.504;11.346;2023-03-05T02:17:12;10.30;;;7.38;;
11427;SDS011;5770;44.504;11.346;2023-03-05T02:19:47;12.00;;;7.82;;
11427;SDS011;5770;44.504;11.346;2023-03-05T02:22:17;16.60;;;8.05;;
11427;SDS011;5770;44.504;11.346;2023-03-05T02:24:45;10.13;;;7.57;;
11427;SDS011;5770;44.504;11.346;2023-03-05T02:27:12;12.38;;;8.07;;
11427;SDS011;5770;44.504;11.346;2023-03-05T02:29:41;11.60;;;7.82;;
11427;SDS011;5770;44.504;11.346;2023-03-05T02:32:09;11.32;;;7.47;;
11427;SDS011;5770;44.504;11.346;2023-03-05T02:34:36;10.00;;;7.57;;
11427;SDS011;5770;44.504;11.346;2023-03-05T02:37:03;11.90;;;7.88;;
11427;SDS011;5770;44.504;11.346;2023-03-05T02:39:34;9.57;;;7.47;;
11427;SDS011;5770;44.504;11.346;2023-03-05T02:42:01;12.60;;;7.75;;
11427;SDS011;5770;44.504;11.346;2023-03-05T02:44:29;10.30;;;7.55;;
11427;SDS011;5770;44.504;11.346;2023-03-05T02:46:56;11.13;;;7.78;;
11427;SDS011;5770;44.504;11.346;2023-03-05T02:49:23;11.20;;;7.40;;
11427;SDS011;5770;44.504;11.346;2023-03-05T02:51:53;11.02;;;7.85;;
11427;SDS011;5770;44.504;11.346;2023-03-05T02:54:21;13.93;;;7.25;;
11427;SDS011;5770;44.504;11.346;2023-03-05T02:56:49;13.23;;;8.23;;
11427;SDS011;5770;44.504;11.346;2023-03-05T02:59:16;13.93;;;7.75;;
11427;SDS011;5770;44.504;11.346;2023-03-05T03:01:43;11.23;;;7.65;;
11427;SDS011;5770;44.504;11.346;2023-03-05T03:04:10;11.27;;;7.25;;
11427;SDS011;5770;44.504;11.346;2023-03-05T03:06:37;11.02;;;7.32;;
11427;SDS011;5770;44.504;11.346;2023-03-05T03:09:05;10.57;;;7.47;;
11427;SDS011;5770;44.504;11.346;2023-03-05T03:11:32;10.95;;;7.47;;
11427;SDS011;5770;44.504;11.346;2023-03-05T03:14:00;8.55;;;7.07;;
11427;SDS011;5770;44.504;11.346;2023-03-05T03:16:27;14.48;;;7.75;;
11427;SDS011;5770;44.504;11.346;2023-03-05T03:18:57;11.48;;;7.35;;
11427;SDS011;5770;44.504;11.346;2023-03-05T03:21:25;9.65;;;6.88;;
11427;SDS011;5770;44.504;11.346;2023-03-05T03:23:54;9.02;;;7.18;;
11427;SDS011;5770;44.504;11.346;2023-03-05T03:26:21;10.75;;;6.80;;
11427;SDS011;5770;44.504;11.346;2023-03-05T03:28:48;11.07;;;6.88;;
11427;SDS011;5770;44.504;11.346;2023-03-05T03:31:17;10.68;;;7.00;;
11427;SDS011;5770;44.504;11.346;2023-03-05T03:33:44;10.15;;;6.57;;
11427;SDS011;5770;44.504;11.346;2023-03-05T03:36:11;9.73;;;6.80;;
11427;SDS011;5770;44.504;11.346;2023-03-05T03:38:38;8.68;;;7.05;;
11427;SDS011;5770;44.504;11.346;2023-03-05T03:41:06;10.35;;;7.15;;
11427;SDS011;5770;44.504;11.346;2023-03-05T03:43:34;9.38;;;6.70;;
11427;SDS011;5770;44.504;11.346;2023-03-05T03:46:02;11.50;;;6.72;;
11427;SDS011;5770;44.504;11.346;2023-03-05T03:48:30;10.05;;;6.72;;
11427;SDS011;5770;44.504;11.346;2023-03-05T03:50:57;9.75;;;6.68;;
11427;SDS011;5770;44.504;11.346;2023-03-05T03:53:25;9.27;;;6.60;;
11427;SDS011;5770;44.504;11.346;2023-03-05T03:55:56;11.40;;;7.40;;
11427;SDS011;5770;44.504;11.346;2023-03-05T03:58:26;10.57;;;6.95;;
11427;SDS011;5770;44.504;11.346;2023-03-05T04:00:53;10.02;;;6.30;;
11427;SDS011;5770;44.504;11.346;2023-03-05T04:03:20;10.23;;;7.53;;
11427;SDS011;5770;44.504;11.346;2023-03-05T04:05:49;9.57;;;6.90;;
11427;SDS011;5770;44.504;11.346;2023-03-05T04:08:16;8.88;;;6.03;;
11427;SDS011;5770;44.504;11.346;2023-03-05T04:10:43;10.20;;;6.55;;
11427;SDS011;5770;44.504;11.346;2023-03-05T04:13:11;8.00;;;6.43;;
11427;SDS011;5770;44.504;11.346;2023-03-05T04:15:38;10.85;;;6.90;;
11427;SDS011;5770;44.504;11.346;2023-03-05T04:18:05;9.25;;;6.60;;
11427;SDS011;5770;44.504;11.346;2023-03-05T04:20:32;10.60;;;6.13;;
11427;SDS011;5770;44.504;11.346;2023-03-05T04:23:01;9.27;;;6.50;;
11427;SDS011;5770;44.504;11.346;2023-03-05T04:25:28;8.45;;;6.57;;
11427;SDS011;5770;44.504;11.346;2023-03-05T04:27:55;9.80;;;6.45;;
11427;SDS011;5770;44.504;11.346;2023-03-05T04:30:22;8.30;;;5.80;;
11427;SDS011;5770;44.504;11.346;2023-03-05T04:32:49;9.38;;;6.38;;
11427;SDS011;5770;44.504;11.346;2023-03-05T04:35:17;8.88;;;5.78;;
11427;SDS011;5770;44.504;11.346;2023-03-05T04:37:44;8.02;;;6.60;;
11427;SDS011;5770;44.504;11.346;2023-03-05T04:40:14;12.43;;;6.15;;
11427;SDS011;5770;44.504;11.346;2023-03-05T04:42:42;7.25;;;5.72;;
11427;SDS011;5770;44.504;11.346;2023-03-05T04:45:09;11.93;;;5.72;;
11427;SDS011;5770;44.504;11.346;2023-03-05T04:47:37;6.80;;;5.85;;
11427;SDS011;5770;44.504;11.346;2023-03-05T04:50:04;7.47;;;5.93;;
11427;SDS011;5770;44.504;11.346;2023-03-05T04:52:32;12.32;;;5.80;;
11427;SDS011;5770;44.504;11.346;2023-03-05T04:54:59;9.98;;;6.82;;
11427;SDS011;5770;44.504;11.346;2023-03-05T04:57:28;14.35;;;6.72;;
11427;SDS011;5770;44.504;11.346;2023-03-05T04:59:55;10.00;;;6.47;;
11427;SDS011;5770;44.504;11.346;2023-03-05T05:02:22;10.02;;;6.20;;
11427;SDS011;5770;44.504;11.346;2023-03-05T05:04:51;8.50;;;6.20;;
11427;SDS011;5770;44.504;11.346;2023-03-05T05:07:18;10.25;;;6.30;;
11427;SDS011;5770;44.504;11.346;2023-03-05T05:09:45;9.57;;;6.03;;
11427;SDS011;5770;44.504;11.346;2023-03-05T05:12:12;7.28;;;5.90;;
11427;SDS011;5770;44.504;11.346;2023-03-05T05:14:41;9.73;;;5.93;;
11427;SDS011;5770;44.504;11.346;2023-03-05T05:17:08;11.07;;;6.10;;
11427;SDS011;5770;44.504;11.346;2023-03-05T05:19:35;8.02;;;5.85;;
11427;SDS011;5770;44.504;11.346;2023-03-05T05:22:02;11.38;;;6.57;;
11427;SDS011;5770;44.504;11.346;2023-03-05T05:24:29;6.72;;;5.50;;
11427;SDS011;5770;44.504;11.346;2023-03-05T05:26:56;6.80;;;5.70;;
11427;SDS011;5770;44.504;11.346;2023-03-05T05:29:23;10.02;;;6.03;;
11427;SDS011;5770;44.504;11.346;2023-03-05T05:31:52;8.98;;;5.97;;
11427;SDS011;5770;44.504;11.346;2023-03-05T05:34:20;8.40;;;5.93;;
11427;SDS011;5770;44.504;11.346;2023-03-05T05:36:49;9.65;;;6.55;;
11427;SDS011;5770;44.504;11.346;2023-03-05T05:39:16;12.55;;;6.32;;
11427;SDS011;5770;44.504;11.346;2023-03-05T05:41:43;11.77;;;6.70;;
11427;SDS011;5770;44.504;11.346;2023-03-05T05:44:10;9.98;;;6.13;;
11427;SDS011;5770;44.504;11.346;2023-03-05T05:46:37;10.43;;;5.97;;
11427;SDS011;5770;44.504;11.346;2023-03-05T05:49:06;9.52;;;6.30;;
11427;SDS011;5770;44.504;11.346;2023-03-05T05:51:33;8.55;;;6.25;;
11427;SDS011;5770;44.504;11.346;2023-03-05T05:54:00;10.65;;;6.00;;
11427;SDS011;5770;44.504;11.346;2023-03-05T05:56:28;14.70;;;6.13;;
11427;SDS011;5770;44.504;11.346;2023-03-05T05:58:54;12.57;;;6.85;;
11427;SDS011;5770;44.504;11.346;2023-03-05T06:01:22;11.85;;;6.65;;
11427;SDS011;5770;44.504;11.346;2023-03-05T06:03:52;9.77;;;6.10;;
11427;SDS011;5770;44.504;11.346;2023-03-05T06:06:21;12.10;;;7.28;;
11427;SDS011;5770;44.504;11.346;2023-03-05T06:08:49;11.65;;;6.43;;
11427;SDS011;5770;44.504;11.346;2023-03-05T06:11:16;12.20;;;6.18;;
11427;SDS011;5770;44.504;11.346;2023-03-05T06:13:44;8.98;;;6.72;;
11427;SDS011;5770;44.504;11.346;2023-03-05T06:16:34;10.55;;;6.85;;
11427;SDS011;5770;44.504;11.346;2023-03-05T06:19:01;9.18;;;6.45;;
11427;SDS011;5770;44.504;11.346;2023-03-05T06:21:31;9.43;;;6.20;;
11427;SDS011;5770;44.504;11.346;2023-03-05T06:23:59;13.75;;;6.30;;
11427;SDS011;5770;44.504;11.346;2023-03-05T06:26:26;13.00;;;6.30;;
11427;SDS011;5770;44.504;11.346;2023-03-05T06:28:53;9.13;;;6.22;;
11427;SDS011;5770;44.504;11.346;2023-03-05T06:31:21;11.07;;;6.13;;
11427;SDS011;5770;44.504;11.346;2023-03-05T06:33:50;10.82;;;6.95;;
11427;SDS011;5770;44.504;11.346;2023-03-05T06:36:19;11.40;;;6.18;;
11427;SDS011;5770;44.504;11.346;2023-03-05T06:38:49;9.73;;;6.10;;
11427;SDS011;5770;44.504;11.346;2023-03-05T06:41:17;9.25;;;6.00;;
11427;SDS011;5770;44.504;11.346;2023-03-05T06:43:45;10.60;;;6.70;;
11427;SDS011;5770;44.504;11.346;2023-03-05T06:46:14;8.80;;;6.47;;
11427;SDS011;5770;44.504;11.346;2023-03-05T06:48:43;11.20;;;7.10;;
11427;SDS011;5770;44.504;11.346;2023-03-05T06:51:13;9.00;;;6.93;;
11427;SDS011;5770;44.504;11.346;2023-03-05T06:53:41;13.70;;;7.15;;
11427;SDS011;5770;44.504;11.346;2023-03-05T06:56:09;11.45;;;7.35;;
11427;SDS011;5770;44.504;11.346;2023-03-05T06:58:38;9.43;;;7.25;;
11427;SDS011;5770;44.504;11.346;2023-03-05T07:01:05;10.38;;;6.57;;
11427;SDS011;5770;44.504;11.346;2023-03-05T07:03:33;7.78;;;6.57;;
11427;SDS011;5770;44.504;11.346;2023-03-05T07:06:01;12.43;;;6.50;;
11427;SDS011;5770;44.504;11.346;2023-03-05T07:08:29;9.90;;;6.47;;
11427;SDS011;5770;44.504;11.346;2023-03-05T07:10:56;11.43;;;6.05;;
11427;SDS011;5770;44.504;11.346;2023-03-05T07:13:25;9.95;;;6.35;;
11427;SDS011;5770;44.504;11.346;2023-03-05T07:15:53;10.65;;;6.65;;
11427;SDS011;5770;44.504;11.346;2023-03-05T07:18:22;8.10;;;5.63;;
11427;SDS011;5770;44.504;11.346;2023-03-05T07:20:50;8.82;;;5.90;;
11427;SDS011;5770;44.504;11.346;2023-03-05T07:23:19;9.48;;;5.50;;
11427;SDS011;5770;44.504;11.346;2023-03-05T07:25:46;7.57;;;5.72;;
11427;SDS011;5770;44.504;11.346;2023-03-05T07:28:13;7.97;;;5.78;;
11427;SDS011;5770;44.504;11.346;2023-03-05T07:30:42;8.95;;;5.55;;
11427;SDS011;5770;44.504;11.346;2023-03-05T07:33:09;8.13;;;5.50;;
11427;SDS011;5770;44.504;11.346;2023-03-05T07:35:38;9.52;;;5.65;;
11427;SDS011;5770;44.504;11.346;2023-03-05T07:38:06;9.88;;;5.93;;
11427;SDS011;5770;44.504;11.346;2023-03-05T07:40:33;6.78;;;6.00;;
11427;SDS011;5770;44.504;11.346;2023-03-05T07:43:00;8.07;;;6.05;;
11427;SDS011;5770;44.504;11.346;2023-03-05T07:45:28;7.72;;;5.80;;
11427;SDS011;5770;44.504;11.346;2023-03-05T07:47:57;7.22;;;5.30;;
11427;SDS011;5770;44.504;11.346;2023-03-05T07:50:24;6.93;;;5.32;;
11427;SDS011;5770;44.504;11.346;2023-03-05T07:52:51;11.60;;;5.85;;
11427;SDS011;5770;44.504;11.346;2023-03-05T07:55:19;10.82;;;6.35;;
11427;SDS011;5770;44.504;11.346;2023-03-05T07:57:56;10.30;;;6.13;;
11427;SDS011;5770;44.504;11.346;2023-03-05T08:00:25;7.85;;;5.30;;
11427;SDS011;5770;44.504;11.346;2023-03-05T08:02:53;9.23;;;5.80;;
11427;SDS011;5770;44.504;11.346;2023-03-05T08:05:22;11.55;;;5.40;;
11427;SDS011;5770;44.504;11.346;2023-03-05T08:07:49;8.23;;;5.68;;
11427;SDS011;5770;44.504;11.346;2023-03-05T08:10:16;8.77;;;5.75;;
11427;SDS011;5770;44.504;11.346;2023-03-05T08:12:47;6.80;;;5.15;;
11427;SDS011;5770;44.504;11.346;2023-03-05T08:15:24;8.15;;;5.82;;
11427;SDS011;5770;44.504;11.346;2023-03-05T08:17:56;6.30;;;5.65;;
11427;SDS011;5770;44.504;11.346;2023-03-05T08:20:26;11.70;;;5.22;;
11427;SDS011;5770;44.504;11.346;2023-03-05T08:22:55;7.15;;;4.90;;
11427;SDS011;5770;44.504;11.346;2023-03-05T08:25:22;8.88;;;4.97;;
11427;SDS011;5770;44.504;11.346;2023-03-05T08:27:49;10.02;;;4.80;;
11427;SDS011;5770;44.504;11.346;2023-03-05T08:30:17;8.52;;;5.45;;
11427;SDS011;5770;44.504;11.346;2023-03-05T08:32:47;5.88;;;4.57;;
11427;SDS011;5770;44.504;11.346;2023-03-05T08:35:15;5.28;;;4.25;;
11427;SDS011;5770;44.504;11.346;2023-03-05T08:37:43;6.80;;;4.10;;
11427;SDS011;5770;44.504;11.346;2023-03-05T08:40:11;7.43;;;4.03;;
11427;SDS011;5770;44.504;11.346;2023-03-05T08:42:38;7.78;;;4.63;;
11427;SDS011;5770;44.504;11.346;2023-03-05T08:45:06;5.80;;;4.13;;
11427;SDS011;5770;44.504;11.346;2023-03-05T08:47:33;5.10;;;4.30;;
11427;SDS011;5770;44.504;11.346;2023-03-05T08:50:00;7.82;;;4.85;;
11427;SDS011;5770;44.504;11.346;2023-03-05T08:52:28;6.30;;;4.32;;
11427;SDS011;5770;44.504;11.346;2023-03-05T08:54:57;6.57;;;4.93;;
11427;SDS011;5770;44.504;11.346;2023-03-05T08:57:24;5.57;;;4.18;;
11427;SDS011;5770;44.504;11.346;2023-03-05T08:59:51;11.00;;;5.03;;
11427;SDS011;5770;44.504;11.346;2023-03-05T09:02:19;5.80;;;4.15;;
11427;SDS011;5770;44.504;11.346;2023-03-05T09:04:47;5.25;;;4.25;;
11427;SDS011;5770;44.504;11.346;2023-03-05T09:07:14;5.88;;;3.80;;
11427;SDS011;5770;44.504;11.346;2023-03-05T09:09:41;6.65;;;4.63;;
11427;SDS011;5770;44.504;11.346;2023-03-05T09:12:10;5.53;;;4.03;;
11427;SDS011;5770;44.504;11.346;2023-03-05T09:14:37;7.25;;;4.18;;
11427;SDS011;5770;44.504;11.346;2023-03-05T09:17:04;6.00;;;3.78;;
11427;SDS011;5770;44.504;11.346;2023-03-05T09:19:31;5.90;;;3.80;;
11427;SDS011;5770;44.504;11.346;2023-03-05T09:21:58;7.57;;;4.15;;
11427;SDS011;5770;44.504;11.346;2023-03-05T09:24:26;5.45;;;4.22;;
11427;SDS011;5770;44.504;11.346;2023-03-05T09:26:56;6.75;;;4.13;;
11427;SDS011;5770;44.504;11.346;2023-03-05T09:29:25;5.07;;;3.70;;
11427;SDS011;5770;44.504;11.346;2023-03-05T09:31:53;6.22;;;4.05;;
11427;SDS011;5770;44.504;11.346;2023-03-05T09:34:20;6.55;;;4.10;;
11427;SDS011;5770;44.504;11.346;2023-03-05T09:36:48;9.23;;;4.55;;
11427;SDS011;5770;44.504;11.346;2023-03-05T09:39:15;6.70;;;3.90;;
11427;SDS011;5770;44.504;11.346;2023-03-05T09:41:50;6.70;;;4.20;;
11427;SDS011;5770;44.504;11.346;2023-03-05T09:44:32;6.55;;;3.70;;
11427;SDS011;5770;44.504;11.346;2023-03-05T09:47:03;8.75;;;4.15;;
11427;SDS011;5770;44.504;11.346;2023-03-05T09:49:44;7.22;;;4.07;;
11427;SDS011;5770;44.504;11.346;2023-03-05T09:52:17;7.78;;;4.10;;
11427;SDS011;5770;44.504;11.346;2023-03-05T09:54:51;6.07;;;4.70;;
11427;SDS011;5770;44.504;11.346;2023-03-05T09:57:21;7.00;;;4.00;;
11427;SDS011;5770;44.504;11.346;2023-03-05T09:59:50;8.07;;;4.40;;
11427;SDS011;5770;44.504;11.346;2023-03-05T10:02:20;9.35;;;5.05;;
11427;SDS011;5770;44.504;11.346;2023-03-05T10:04:50;5.88;;;4.63;;
11427;SDS011;5770;44.504;11.346;2023-03-05T10:07:20;6.63;;;4.63;;
11427;SDS011;5770;44.504;11.346;2023-03-05T10:09:53;7.00;;;4.45;;
11427;SDS011;5770;44.504;11.346;2023-03-05T10:12:23;8.52;;;5.15;;
11427;SDS011;5770;44.504;11.346;2023-03-05T10:14:58;8.23;;;5.50;;
11427;SDS011;5770;44.504;11.346;2023-03-05T10:23:24;12.95;;;5.85;;
11427;SDS011;5770;44.504;11.346;2023-03-05T10:25:56;9.80;;;5.95;;
11427;SDS011;5770;44.504;11.346;2023-03-05T10:28:28;8.02;;;5.22;;
11427;SDS011;5770;44.504;11.346;2023-03-05T10:31:03;8.60;;;5.80;;
11427;SDS011;5770;44.504;11.346;2023-03-05T10:33:34;9.20;;;6.75;;
11427;SDS011;5770;44.504;11.346;2023-03-05T10:39:14;9.48;;;6.28;;
11427;SDS011;5770;44.504;11.346;2023-03-05T10:41:59;9.38;;;6.47;;
11427;SDS011;5770;44.504;11.346;2023-03-05T10:44:33;9.18;;;5.55;;
11427;SDS011;5770;44.504;11.346;2023-03-05T10:47:06;9.00;;;5.70;;
11427;SDS011;5770;44.504;11.346;2023-03-05T10:49:43;9.02;;;6.47;;
11427;SDS011;5770;44.504;11.346;2023-03-05T10:52:16;12.57;;;7.28;;
11427;SDS011;5770;44.504;11.346;2023-03-05T10:54:43;10.00;;;6.07;;
11427;SDS011;5770;44.504;11.346;2023-03-05T10:57:14;8.45;;;6.43;;
11427;SDS011;5770;44.504;11.346;2023-03-05T10:59:45;8.82;;;6.32;;
11427;SDS011;5770;44.504;11.346;2023-03-05T11:02:16;10.80;;;6.55;;
11427;SDS011;5770;44.504;11.346;2023-03-05T11:04:45;10.38;;;5.90;;
11427;SDS011;5770;44.504;11.346;2023-03-05T11:07:29;8.65;;;6.45;;
11427;SDS011;5770;44.504;11.346;2023-03-05T11:10:06;11.73;;;6.85;;
11427;SDS011;5770;44.504;11.346;2023-03-05T11:12:45;8.90;;;6.50;;
11427;SDS011;5770;44.504;11.346;2023-03-05T11:15:26;12.38;;;6.63;;
11427;SDS011;5770;44.504;11.346;2023-03-05T11:20:48;11.55;;;6.85;;
11427;SDS011;5770;44.504;11.346;2023-03-05T11:23:17;9.07;;;6.22;;
11427;SDS011;5770;44.504;11.346;2023-03-05T11:25:57;11.95;;;6.97;;
11427;SDS011;5770;44.504;11.346;2023-03-05T11:28:27;11.88;;;6.47;;
11427;SDS011;5770;44.504;11.346;2023-03-05T11:30:59;14.70;;;7.47;;
11427;SDS011;5770;44.504;11.346;2023-03-05T11:33:31;13.65;;;7.18;;
11427;SDS011;5770;44.504;11.346;2023-03-05T11:38:55;10.88;;;6.68;;
11427;SDS011;5770;44.504;11.346;2023-03-05T11:41:26;9.95;;;7.15;;
11427;SDS011;5770;44.504;11.346;2023-03-05T11:43:55;9.20;;;7.15;;
11427;SDS011;5770;44.504;11.346;2023-03-05T11:46:24;11.57;;;6.93;;
11427;SDS011;5770;44.504;11.346;2023-03-05T11:48:54;11.00;;;6.82;;
11427;SDS011;5770;44.504;11.346;2023-03-05T11:51:24;11.05;;;6.78;;
11427;SDS011;5770;44.504;11.346;2023-03-05T11:53:54;13.00;;;7.25;;
11427;SDS011;5770;44.504;11.346;2023-03-05T11:56:23;10.82;;;6.90;;
11427;SDS011;5770;44.504;11.346;2023-03-05T11:58:53;12.10;;;6.80;;
11427;SDS011;5770;44.504;11.346;2023-03-05T12:01:27;10.70;;;6.82;;
11427;SDS011;5770;44.504;11.346;2023-03-05T12:03:56;9.98;;;7.65;;
11427;SDS011;5770;44.504;11.346;2023-03-05T12:06:26;13.35;;;7.50;;
11427;SDS011;5770;44.504;11.346;2023-03-05T12:08:55;12.38;;;7.07;;
11427;SDS011;5770;44.504;11.346;2023-03-05T12:11:26;10.25;;;7.25;;
11427;SDS011;5770;44.504;11.346;2023-03-05T12:13:54;14.68;;;7.55;;
11427;SDS011;5770;44.504;11.346;2023-03-05T12:16:25;12.23;;;7.97;;
11427;SDS011;5770;44.504;11.346;2023-03-05T12:18:59;11.55;;;7.80;;
11427;SDS011;5770;44.504;11.346;2023-03-05T12:21:29;22.17;;;9.68;;
11427;SDS011;5770;44.504;11.346;2023-03-05T12:23:59;21.50;;;8.43;;
11427;SDS011;5770;44.504;11.346;2023-03-05T12:29:26;12.57;;;7.15;;
11427;SDS011;5770;44.504;11.346;2023-03-05T12:31:54;13.45;;;7.50;;
11427;SDS011;5770;44.504;11.346;2023-03-05T12:34:35;12.68;;;7.30;;
11427;SDS011;5770;44.504;11.346;2023-03-05T12:37:11;16.65;;;7.43;;
11427;SDS011;5770;44.504;11.346;2023-03-05T12:39:46;12.75;;;6.85;;
11427;SDS011;5770;44.504;11.346;2023-03-05T12:45:23;13.10;;;7.72;;
11427;SDS011;5770;44.504;11.346;2023-03-05T12:53:57;12.18;;;7.88;;
11427;SDS011;5770;44.504;11.346;2023-03-05T12:56:36;22.33;;;8.32;;
11427;SDS011;5770;44.504;11.346;2023-03-05T12:59:10;10.15;;;7.50;;
11427;SDS011;5770;44.504;11.346;2023-03-05T13:01:39;11.70;;;7.28;;
11427;SDS011;5770;44.504;11.346;2023-03-05T13:04:11;12.48;;;7.43;;
11427;SDS011;5770;44.504;11.346;2023-03-05T13:06:43;13.52;;;7.20;;
11427;SDS011;5770;44.504;11.346;2023-03-05T13:09:23;16.33;;;7.97;;
11427;SDS011;5770;44.504;11.346;2023-03-05T13:11:52;10.73;;;7.07;;
11427;SDS011;5770;44.504;11.346;2023-03-05T13:14:31;13.80;;;7.85;;
11427;SDS011;5770;44.504;11.346;2023-03-05T13:17:02;16.75;;;8.07;;
11427;SDS011;5770;44.504;11.346;2023-03-05T13:19:29;35.10;;;9.50;;
11427;SDS011;5770;44.504;11.346;2023-03-05T13:22:00;10.50;;;6.93;;
11427;SDS011;5770;44.504;11.346;2023-03-05T13:24:32;12.07;;;7.47;;
11427;SDS011;5770;44.504;11.346;2023-03-05T13:26:59;10.95;;;6.97;;
11427;SDS011;5770;44.504;11.346;2023-03-05T13:29:27;11.35;;;7.07;;
11427;SDS011;5770;44.504;11.346;2023-03-05T13:31:55;15.80;;;7.70;;
11427;SDS011;5770;44.504;11.346;2023-03-05T13:34:29;11.25;;;6.82;;
11427;SDS011;5770;44.504;11.346;2023-03-05T13:36:58;9.90;;;7.03;;
11427;SDS011;5770;44.504;11.346;2023-03-05T13:39:26;10.23;;;7.00;;
11427;SDS011;5770;44.504;11.346;2023-03-05T13:41:56;12.63;;;6.82;;
11427;SDS011;5770;44.504;11.346;2023-03-05T13:44:27;11.50;;;6.45;;
11427;SDS011;5770;44.504;11.346;2023-03-05T13:47:05;10.80;;;6.40;;
11427;SDS011;5770;44.504;11.346;2023-03-05T13:49:33;7.82;;;5.78;;
11427;SDS011;5770;44.504;11.346;2023-03-05T13:52:00;12.50;;;6.95;;
11427;SDS011;5770;44.504;11.346;2023-03-05T13:54:27;11.00;;;6.55;;
11427;SDS011;5770;44.504;11.346;2023-03-05T13:56:57;9.90;;;6.22;;
11427;SDS011;5770;44.504;11.346;2023-03-05T13:59:25;12.50;;;7.10;;
11427;SDS011;5770;44.504;11.346;2023-03-05T14:01:57;10.77;;;5.97;;
11427;SDS011;5770;44.504;11.346;2023-03-05T14:04:25;9.82;;;5.82;;
11427;SDS011;5770;44.504;11.346;2023-03-05T14:06:55;11.23;;;5.35;;
11427;SDS011;5770;44.504;11.346;2023-03-05T14:09:24;9.93;;;5.93;;
11427;SDS011;5770;44.504;11.346;2023-03-05T14:11:55;14.85;;;6.22;;
11427;SDS011;5770;44.504;11.346;2023-03-05T14:14:26;11.70;;;7.82;;
11427;SDS011;5770;44.504;11.346;2023-03-05T14:16:53;9.77;;;5.93;;
11427;SDS011;5770;44.504;11.346;2023-03-05T14:19:30;9.27;;;6.00;;
11427;SDS011;5770;44.504;11.346;2023-03-05T14:21:59;12.00;;;6.05;;
11427;SDS011;5770;44.504;11.346;2023-03-05T14:24:26;8.60;;;5.80;;
11427;SDS011;5770;44.504;11.346;2023-03-05T14:26:58;11.68;;;6.22;;
11427;SDS011;5770;44.504;11.346;2023-03-05T14:29:31;10.85;;;5.90;;
11427;SDS011;5770;44.504;11.346;2023-03-05T14:32:03;12.68;;;5.47;;
11427;SDS011;5770;44.504;11.346;2023-03-05T14:34:31;11.95;;;6.55;;
11427;SDS011;5770;44.504;11.346;2023-03-05T14:37:01;11.30;;;6.45;;
11427;SDS011;5770;44.504;11.346;2023-03-05T14:39:30;9.43;;;6.15;;
11427;SDS011;5770;44.504;11.346;2023-03-05T14:42:27;10.90;;;6.10;;
11427;SDS011;5770;44.504;11.346;2023-03-05T14:44:59;7.55;;;5.10;;
11427;SDS011;5770;44.504;11.346;2023-03-05T14:47:26;7.85;;;5.97;;
11427;SDS011;5770;44.504;11.346;2023-03-05T14:49:54;11.60;;;5.57;;
11427;SDS011;5770;44.504;11.346;2023-03-05T14:52:22;9.63;;;5.93;;
11427;SDS011;5770;44.504;11.346;2023-03-05T14:54:50;8.35;;;5.65;;
11427;SDS011;5770;44.504;11.346;2023-03-05T14:57:18;9.20;;;5.80;;
11427;SDS011;5770;44.504;11.346;2023-03-05T14:59:49;8.38;;;5.82;;
11427;SDS011;5770;44.504;11.346;2023-03-05T15:02:16;9.70;;;5.50;;
11427;SDS011;5770;44.504;11.346;2023-03-05T15:04:44;10.15;;;5.35;;
11427;SDS011;5770;44.504;11.346;2023-03-05T15:07:15;7.72;;;4.80;;
11427;SDS011;5770;44.504;11.346;2023-03-05T15:09:43;9.48;;;5.32;;
11427;SDS011;5770;44.504;11.346;2023-03-05T15:12:10;7.85;;;5.32;;
11427;SDS011;5770;44.504;11.346;2023-03-05T15:14:38;9.20;;;4.93;;
11427;SDS011;5770;44.504;11.346;2023-03-05T15:17:11;10.90;;;6.43;;
11427;SDS011;5770;44.504;11.346;2023-03-05T15:19:39;10.43;;;5.22;;